createdAt,value
2018-06-19T00:01:16.338Z,2.03
2018-06-19T00:02:51.830Z,2.00
2018-06-19T00:04:27.788Z,2.10
2018-06-19T00:06:03.294Z,1.97
2018-06-19T00:07:38.838Z,2.13
2018-06-19T00:09:14.430Z,2.00
2018-06-19T00:10:49.973Z,2.10
2018-06-19T00:12:25.484Z,2.30
2018-06-19T00:14:01.183Z,2.03
2018-06-19T00:15:37.032Z,2.40
2018-06-19T00:17:13.455Z,2.40
2018-06-19T00:18:55.156Z,2.40
2018-06-19T00:20:30.679Z,2.40
2018-06-19T00:22:06.288Z,2.20
2018-06-19T00:23:42.505Z,2.20
2018-06-19T00:25:18.314Z,1.87
2018-06-19T00:26:54.149Z,1.90
2018-06-19T00:28:29.989Z,2.20
2018-06-19T00:30:06.581Z,2.20
2018-06-19T00:31:43.177Z,2.50
2018-06-19T00:33:19.584Z,2.07
2018-06-19T00:34:55.124Z,2.50
2018-06-19T00:36:30.706Z,2.40
2018-06-19T00:38:07.457Z,2.20
2018-06-19T00:39:43.018Z,2.20
2018-06-19T00:41:18.528Z,2.10
2018-06-19T00:42:54.136Z,2.20
2018-06-19T00:44:29.849Z,2.37
2018-06-19T00:46:06.391Z,2.20
2018-06-19T00:47:42.533Z,2.67
2018-06-19T00:49:18.092Z,2.50
2018-06-19T00:50:54.439Z,2.43
2018-06-19T00:52:30.018Z,2.60
2018-06-19T00:54:05.576Z,2.30
2018-06-19T00:55:41.155Z,2.53
2018-06-19T00:57:18.754Z,2.20
2018-06-19T00:58:54.647Z,2.20
2018-06-19T01:00:30.149Z,2.23
2018-06-19T01:02:05.888Z,2.13
2018-06-19T01:03:41.398Z,2.03
2018-06-19T01:05:17.363Z,2.00
2018-06-19T01:06:53.142Z,2.77
2018-06-19T01:08:28.665Z,2.33
2018-06-19T01:10:04.291Z,2.10
2018-06-19T01:11:40.382Z,2.70
2018-06-19T01:13:16.865Z,2.47
2018-06-19T01:14:52.628Z,2.17
2018-06-19T01:16:28.136Z,2.23
2018-06-19T01:18:05.083Z,2.40
2018-06-19T01:19:41.194Z,2.27
2018-06-19T01:21:17.871Z,2.57
2018-06-19T01:22:54.244Z,2.20
2018-06-19T01:24:30.427Z,2.27
2018-06-19T01:26:05.993Z,2.60
2018-06-19T01:27:41.735Z,2.10
2018-06-19T01:29:17.246Z,2.50
2018-06-19T01:30:53.167Z,1.97
2018-06-19T01:32:29.672Z,2.30
2018-06-19T01:34:05.620Z,2.40
2018-06-19T01:35:41.346Z,2.43
2018-06-19T01:37:16.903Z,2.20
2018-06-19T01:38:52.661Z,2.33
2018-06-19T01:40:29.309Z,2.60
2018-06-19T01:42:04.864Z,2.40
2018-06-19T01:43:40.868Z,2.10
2018-06-19T01:45:16.678Z,2.20
2018-06-19T01:46:52.758Z,2.20
2018-06-19T01:48:29.083Z,2.37
2018-06-19T01:50:05.091Z,2.10
2018-06-19T01:51:42.458Z,2.23
2018-06-19T01:53:18.692Z,2.10
2018-06-19T01:54:54.398Z,2.10
2018-06-19T01:56:29.964Z,2.30
2018-06-19T01:58:05.873Z,2.33
2018-06-19T01:59:41.508Z,2.20
2018-06-19T02:01:17.780Z,2.23
2018-06-19T02:02:53.855Z,2.20
2018-06-19T02:04:29.410Z,2.13
2018-06-19T02:06:04.971Z,2.00
2018-06-19T02:07:40.534Z,2.30
2018-06-19T02:09:16.059Z,1.93
2018-06-19T02:10:51.570Z,2.20
2018-06-19T02:12:27.107Z,2.30
2018-06-19T02:14:03.599Z,2.07
2018-06-19T02:15:39.139Z,2.30
2018-06-19T02:17:14.914Z,2.27
2018-06-19T02:18:50.419Z,2.23
2018-06-19T02:20:26.025Z,2.10
2018-06-19T02:22:01.992Z,2.47
2018-06-19T02:23:37.777Z,2.00
2018-06-19T02:25:13.310Z,2.30
2018-06-19T02:26:48.814Z,2.27
2018-06-19T02:28:24.740Z,2.30
2018-06-19T02:30:00.287Z,2.37
2018-06-19T02:31:36.530Z,2.30
2018-06-19T02:33:12.016Z,2.07
2018-06-19T02:34:48.250Z,2.20
2018-06-19T02:36:23.873Z,1.93
2018-06-19T02:37:59.693Z,1.93
2018-06-19T02:39:35.257Z,2.37
2018-06-19T02:41:10.764Z,2.10
2018-06-19T02:42:46.314Z,2.20
2018-06-19T02:44:21.993Z,2.07
2018-06-19T02:45:58.076Z,2.30
2018-06-19T02:47:33.595Z,2.30
2018-06-19T02:49:09.185Z,2.20
2018-06-19T02:50:44.774Z,2.10
2018-06-19T02:52:20.299Z,2.50
2018-06-19T02:53:55.804Z,2.20
2018-06-19T02:55:32.663Z,2.40
2018-06-19T02:57:09.056Z,2.40
2018-06-19T02:58:44.635Z,3.00
2018-06-19T03:00:20.314Z,2.70
2018-06-19T03:01:55.866Z,2.50
2018-06-19T03:03:31.404Z,2.80
2018-06-19T03:05:06.994Z,2.50
2018-06-19T03:06:42.524Z,2.50
2018-06-19T03:08:19.002Z,2.37
2018-06-19T03:09:55.567Z,2.87
2018-06-19T03:11:31.131Z,2.47
2018-06-19T03:13:06.825Z,2.77
2018-06-19T03:14:42.404Z,2.40
2018-06-19T03:16:17.967Z,2.50
2018-06-19T03:17:53.650Z,2.50
2018-06-19T03:19:29.186Z,2.50
2018-06-19T03:21:04.776Z,2.43
2018-06-19T03:22:40.775Z,2.20
2018-06-19T03:24:16.709Z,2.30
2018-06-19T03:25:52.215Z,2.57
2018-06-19T03:27:27.719Z,2.40
2018-06-19T03:29:03.251Z,2.70
2018-06-19T03:30:38.808Z,2.50
2018-06-19T03:32:14.347Z,2.50
2018-06-19T03:33:49.948Z,2.40
2018-06-19T03:35:25.685Z,2.27
2018-06-19T03:37:01.259Z,2.50
2018-06-19T03:38:36.826Z,2.23
2018-06-19T03:40:12.447Z,2.80
2018-06-19T03:41:49.000Z,2.60
2018-06-19T03:43:24.566Z,2.40
2018-06-19T03:45:00.522Z,2.60
2018-06-19T03:46:36.075Z,2.60
2018-06-19T03:48:11.634Z,2.57
2018-06-19T03:49:47.276Z,2.53
2018-06-19T03:51:22.903Z,2.60
2018-06-19T03:52:58.429Z,2.70
2018-06-19T03:54:33.978Z,2.60
2018-06-19T03:56:11.299Z,2.40
2018-06-19T03:57:46.807Z,2.33
2018-06-19T03:59:22.559Z,2.30
2018-06-19T04:00:58.348Z,2.47
2018-06-19T04:02:33.991Z,2.20
2018-06-19T04:04:10.176Z,2.43
2018-06-19T04:05:45.756Z,2.50
2018-06-19T04:07:21.279Z,2.50
2018-06-19T04:08:57.644Z,2.50
2018-06-19T04:10:34.126Z,2.57
2018-06-19T04:12:09.706Z,2.40
2018-06-19T04:13:46.123Z,2.63
2018-06-19T04:15:21.724Z,2.60
2018-06-19T04:16:57.344Z,2.93
2018-06-19T04:18:32.824Z,2.77
2018-06-19T04:20:08.343Z,2.60
2018-06-19T04:21:43.855Z,2.23
2018-06-19T04:23:19.379Z,2.20
2018-06-19T04:24:55.303Z,2.10
2018-06-19T04:26:30.846Z,1.90
2018-06-19T04:28:06.471Z,1.87
2018-06-19T04:29:42.570Z,2.23
2018-06-19T04:31:18.183Z,2.40
2018-06-19T04:32:54.026Z,2.20
2018-06-19T04:34:29.529Z,2.30
2018-06-19T04:36:06.556Z,2.30
2018-06-19T04:37:42.123Z,2.17
2018-06-19T04:39:17.761Z,2.20
2018-06-19T04:40:53.396Z,2.20
2018-06-19T04:42:29.010Z,1.90
2018-06-19T04:44:06.270Z,2.13
2018-06-19T04:45:42.171Z,2.10
2018-06-19T04:47:17.799Z,2.10
2018-06-19T04:48:59.139Z,2.03
2018-06-19T04:50:34.678Z,1.67
2018-06-19T04:52:10.291Z,1.97
2018-06-19T04:53:48.230Z,1.87
2018-06-19T04:55:23.754Z,1.93
2018-06-19T04:57:00.075Z,2.00
2018-06-19T04:58:35.907Z,2.20
2018-06-19T05:00:11.446Z,2.00
2018-06-19T05:01:47.083Z,2.00
2018-06-19T05:03:22.731Z,2.30
2018-06-19T05:04:58.322Z,2.30
2018-06-19T05:06:39.670Z,2.23
2018-06-19T05:08:15.314Z,1.90
2018-06-19T05:09:51.164Z,2.10
2018-06-19T05:11:26.797Z,2.03
2018-06-19T05:13:02.453Z,2.10
2018-06-19T05:14:38.074Z,1.77
2018-06-19T05:16:13.689Z,2.10
2018-06-19T05:17:49.512Z,1.90
2018-06-19T05:19:25.327Z,1.77
2018-06-19T05:21:00.996Z,2.00
2018-06-19T05:22:36.607Z,2.00
2018-06-19T05:24:12.147Z,2.07
2018-06-19T05:25:47.726Z,1.90
2018-06-19T05:27:23.264Z,2.00
2018-06-19T05:28:59.316Z,2.00
2018-06-19T05:30:35.042Z,2.20
2018-06-19T05:32:10.666Z,2.40
2018-06-19T05:33:46.277Z,2.17
2018-06-19T05:35:21.791Z,2.00
2018-06-19T05:36:57.512Z,1.90
2018-06-19T05:38:34.247Z,1.90
2018-06-19T05:40:09.823Z,2.07
2018-06-19T05:41:45.846Z,2.00
2018-06-19T05:43:22.298Z,2.00
2018-06-19T05:44:57.834Z,2.23
2018-06-19T05:46:33.537Z,2.10
2018-06-19T05:48:09.811Z,2.53
2018-06-19T05:49:45.392Z,2.00
2018-06-19T05:51:21.541Z,1.97
2018-06-19T05:52:57.158Z,2.00
2018-06-19T05:54:32.792Z,1.83
2018-06-19T05:56:08.384Z,2.03
2018-06-19T05:57:43.878Z,1.90
2018-06-19T05:59:19.422Z,1.60
2018-06-19T06:00:55.066Z,1.90
2018-06-19T06:02:30.657Z,2.07
2018-06-19T06:04:06.251Z,1.93
2018-06-19T06:05:41.940Z,1.63
2018-06-19T06:07:19.359Z,1.60
2018-06-19T06:08:55.705Z,1.90
2018-06-19T06:10:31.273Z,1.63
2018-06-19T06:12:06.812Z,1.50
2018-06-19T06:13:42.507Z,2.00
2018-06-19T06:15:18.039Z,1.80
2018-06-19T06:16:53.915Z,1.70
2018-06-19T06:18:29.444Z,1.93
2018-06-19T06:20:05.330Z,1.60
2018-06-19T06:21:40.908Z,2.33
2018-06-19T06:23:16.960Z,2.10
2018-06-19T06:24:52.457Z,2.13
2018-06-19T06:26:27.985Z,1.80
2018-06-19T06:28:03.871Z,2.07
2018-06-19T06:29:39.391Z,2.10
2018-06-19T06:31:15.022Z,1.90
2018-06-19T06:32:50.643Z,1.73
2018-06-19T06:34:26.238Z,1.90
2018-06-19T06:36:01.839Z,1.80
2018-06-19T06:37:37.476Z,1.90
2018-06-19T06:39:13.030Z,1.87
2018-06-19T06:40:48.577Z,2.07
2018-06-19T06:42:24.183Z,2.10
2018-06-19T06:43:59.770Z,1.97
2018-06-19T06:45:35.374Z,2.10
2018-06-19T06:47:10.935Z,2.30
2018-06-19T06:48:46.490Z,2.13
2018-06-19T06:50:22.137Z,1.80
2018-06-19T06:51:57.820Z,2.30
2018-06-19T06:53:33.550Z,2.40
2018-06-19T06:55:09.107Z,2.20
2018-06-19T06:56:44.708Z,2.37
2018-06-19T06:58:20.308Z,2.03
2018-06-19T06:59:55.897Z,2.50
2018-06-19T07:01:31.471Z,2.10
2018-06-19T07:03:07.034Z,2.20
2018-06-19T07:04:42.599Z,2.37
2018-06-19T07:06:18.106Z,2.93
2018-06-19T07:07:53.631Z,2.40
2018-06-19T07:09:29.184Z,2.60
2018-06-19T07:11:04.740Z,2.40
2018-06-19T07:12:40.258Z,2.30
2018-06-19T07:14:15.747Z,2.87
2018-06-19T07:15:51.324Z,2.77
2018-06-19T07:17:26.894Z,2.60
2018-06-19T07:19:02.483Z,2.73
2018-06-19T07:20:39.220Z,2.77
2018-06-19T07:22:14.753Z,2.37
2018-06-19T07:23:50.310Z,3.13
2018-06-19T07:25:25.870Z,2.60
2018-06-19T07:27:01.486Z,2.20
2018-06-19T07:28:37.083Z,2.33
2018-06-19T07:30:12.717Z,2.80
2018-06-19T07:31:48.358Z,2.40
2018-06-19T07:33:24.558Z,2.50
2018-06-19T07:35:00.147Z,2.07
2018-06-19T07:36:35.682Z,2.27
2018-06-19T07:38:11.418Z,2.20
2018-06-19T07:39:46.971Z,2.07
2018-06-19T07:41:22.601Z,2.40
2018-06-19T07:43:02.168Z,1.97
2018-06-19T07:44:37.732Z,2.37
2018-06-19T07:46:13.306Z,2.03
2018-06-19T07:47:48.936Z,2.13
2018-06-19T07:49:24.511Z,1.87
2018-06-19T07:51:05.778Z,2.43
2018-06-19T07:52:41.333Z,2.23
2018-06-19T07:54:16.911Z,2.30
2018-06-19T07:55:52.518Z,2.30
2018-06-19T07:57:28.245Z,2.43
2018-06-19T07:59:03.916Z,2.13
2018-06-19T08:00:39.517Z,2.20
2018-06-19T08:02:15.128Z,2.10
2018-06-19T08:03:50.777Z,2.60
2018-06-19T08:05:26.716Z,1.87
2018-06-19T08:07:06.477Z,2.00
2018-06-19T08:08:42.101Z,2.20
2018-06-19T08:10:17.672Z,2.47
2018-06-19T08:11:53.197Z,2.00
2018-06-19T08:13:28.881Z,2.20
2018-06-19T08:15:04.536Z,2.23
2018-06-19T08:16:40.151Z,2.37
2018-06-19T08:18:15.715Z,2.27
2018-06-19T08:19:51.283Z,2.10
2018-06-19T08:21:27.241Z,1.90
2018-06-19T08:23:04.238Z,2.00
2018-06-19T08:24:39.814Z,2.20
2018-06-19T08:26:15.405Z,1.93
2018-06-19T08:27:50.984Z,2.20
2018-06-19T08:29:26.535Z,2.07
2018-06-19T08:31:02.101Z,1.90
2018-06-19T08:32:37.663Z,2.03
2018-06-19T08:34:13.271Z,2.20
2018-06-19T08:35:48.887Z,2.17
2018-06-19T08:37:24.917Z,2.40
2018-06-19T08:39:00.548Z,2.10
2018-06-19T08:40:36.154Z,2.07
2018-06-19T08:42:12.306Z,1.97
2018-06-19T08:43:48.047Z,1.80
2018-06-19T08:45:23.630Z,2.17
2018-06-19T08:46:59.256Z,2.10
2018-06-19T08:48:34.890Z,2.00
2018-06-19T08:50:10.517Z,1.70
2018-06-19T08:51:46.100Z,1.70
2018-06-19T08:53:21.642Z,1.80
2018-06-19T08:54:57.240Z,2.30
2018-06-19T08:56:33.428Z,2.20
2018-06-19T08:58:10.715Z,2.00
2018-06-19T08:59:46.373Z,2.10
2018-06-19T09:01:21.992Z,1.70
2018-06-19T09:02:57.649Z,2.00
2018-06-19T09:04:33.278Z,2.00
2018-06-19T09:06:08.843Z,1.83
2018-06-19T09:07:44.580Z,1.90
2018-06-19T09:09:20.319Z,1.70
2018-06-19T09:10:55.947Z,2.00
2018-06-19T09:12:31.547Z,2.00
2018-06-19T09:14:07.346Z,1.90
2018-06-19T09:15:42.980Z,1.80
2018-06-19T09:17:18.525Z,2.10
2018-06-19T09:18:54.104Z,2.00
2018-06-19T09:20:29.765Z,1.90
2018-06-19T09:22:05.227Z,2.43
2018-06-19T09:23:40.799Z,2.10
2018-06-19T09:25:16.417Z,1.80
2018-06-19T09:26:52.006Z,1.80
2018-06-19T09:28:27.559Z,1.87
2018-06-19T09:30:03.168Z,2.20
2018-06-19T09:31:38.784Z,2.10
2018-06-19T09:33:14.311Z,2.20
2018-06-19T09:34:49.948Z,1.90
2018-06-19T09:36:26.150Z,2.30
2018-06-19T09:38:01.783Z,2.07
2018-06-19T09:39:37.490Z,2.10
2018-06-19T09:41:14.520Z,1.97
2018-06-19T09:42:50.063Z,1.90
2018-06-19T09:44:25.650Z,2.23
2018-06-19T09:46:01.878Z,2.13
2018-06-19T09:47:37.600Z,2.23
2018-06-19T09:49:13.388Z,2.20
2018-06-19T09:50:49.096Z,2.20
2018-06-19T09:52:24.627Z,2.13
2018-06-19T09:54:00.345Z,1.67
2018-06-19T09:55:35.907Z,1.40
2018-06-19T09:57:11.592Z,1.50
2018-06-19T09:58:47.275Z,1.73
2018-06-19T10:00:28.176Z,1.90
2018-06-19T10:02:03.719Z,1.90
2018-06-19T10:03:39.389Z,1.77
2018-06-19T10:05:14.955Z,1.70
2018-06-19T10:06:50.517Z,1.90
2018-06-19T10:08:26.116Z,1.60
2018-06-19T10:10:01.997Z,1.60
2018-06-19T10:11:37.671Z,1.60
2018-06-19T10:13:13.229Z,1.47
2018-06-19T10:14:48.856Z,1.37
2018-06-19T10:16:24.416Z,1.53
2018-06-19T10:18:00.216Z,1.73
2018-06-19T10:19:35.832Z,1.60
2018-06-19T10:21:11.364Z,1.40
2018-06-19T10:22:47.626Z,1.30
2018-06-19T10:24:23.658Z,1.40
2018-06-19T10:25:59.154Z,1.30
2018-06-19T10:27:34.731Z,1.30
2018-06-19T10:29:10.264Z,1.37
2018-06-19T10:30:46.583Z,1.30
2018-06-19T10:32:22.919Z,1.50
2018-06-19T10:33:58.417Z,1.40
2018-06-19T10:35:33.960Z,1.20
2018-06-19T10:37:09.519Z,1.30
2018-06-19T10:38:45.091Z,1.40
2018-06-19T10:40:20.664Z,1.30
2018-06-19T10:41:56.235Z,1.60
2018-06-19T10:43:31.865Z,1.27
2018-06-19T10:45:07.484Z,1.30
2018-06-19T10:46:43.093Z,1.42
2018-06-19T10:48:18.915Z,1.30
2018-06-19T10:49:55.031Z,1.50
2018-06-19T10:51:30.704Z,1.20
2018-06-19T10:53:06.347Z,1.00
2018-06-19T10:54:41.903Z,1.22
2018-06-19T10:56:17.754Z,1.37
2018-06-19T10:57:53.813Z,1.25
2018-06-19T10:59:29.885Z,1.35
2018-06-19T11:01:05.591Z,1.40
2018-06-19T11:02:42.415Z,1.05
2018-06-19T11:04:21.361Z,1.40
2018-06-19T11:05:57.337Z,1.30
2018-06-19T11:07:32.884Z,1.60
2018-06-19T11:09:09.994Z,1.20
2018-06-19T11:10:46.174Z,1.30
2018-06-19T11:12:21.798Z,1.20
2018-06-19T11:13:57.543Z,1.30
2018-06-19T11:15:33.843Z,1.40
2018-06-19T11:17:12.038Z,1.27
2018-06-19T11:18:47.755Z,1.30
2018-06-19T11:20:23.876Z,1.40
2018-06-19T11:21:59.483Z,1.22
2018-06-19T11:23:37.869Z,1.10
2018-06-19T11:25:13.719Z,1.27
2018-06-19T11:26:52.890Z,1.60
2018-06-19T11:28:28.494Z,1.17
2018-06-19T11:30:04.271Z,1.25
2018-06-19T11:31:39.904Z,1.20
2018-06-19T11:33:15.555Z,1.45
2018-06-19T11:34:51.094Z,1.55
2018-06-19T11:36:26.628Z,1.20
2018-06-19T11:38:03.051Z,1.17
2018-06-19T11:39:39.136Z,1.37
2018-06-19T11:41:14.725Z,1.22
2018-06-19T11:42:50.309Z,1.30
2018-06-19T11:44:25.896Z,1.25
2018-06-19T11:46:02.216Z,1.32
2018-06-19T11:47:37.816Z,1.40
2018-06-19T11:49:13.529Z,1.10
2018-06-19T11:50:48.995Z,1.45
2018-06-19T11:52:24.615Z,1.40
2018-06-19T11:54:00.505Z,1.30
2018-06-19T11:55:36.076Z,1.20
2018-06-19T11:57:11.637Z,1.40
2018-06-19T11:58:47.643Z,1.20
2018-06-19T12:00:23.248Z,1.20
2018-06-19T12:01:59.041Z,1.30
2018-06-19T12:03:34.764Z,1.65
2018-06-19T12:05:10.301Z,1.40
2018-06-19T12:06:45.889Z,1.20
2018-06-19T12:08:21.868Z,1.40
2018-06-19T12:09:57.464Z,1.50
2018-06-19T12:11:33.067Z,1.40
2018-06-19T12:13:08.728Z,1.20
2018-06-19T12:14:45.408Z,1.40
2018-06-19T12:16:21.083Z,1.50
2018-06-19T12:17:56.827Z,1.50
2018-06-19T12:19:32.402Z,1.20
2018-06-19T12:21:08.048Z,1.30
2018-06-19T12:22:43.710Z,1.20
2018-06-19T12:24:19.353Z,1.60
2018-06-19T12:25:54.958Z,1.47
2018-06-19T12:27:30.506Z,1.57
2018-06-19T12:29:06.062Z,1.85
2018-06-19T12:30:41.712Z,1.55
2018-06-19T12:32:17.299Z,1.60
2018-06-19T12:33:52.895Z,1.60
2018-06-19T12:35:28.510Z,1.55
2018-06-19T12:37:04.092Z,1.60
2018-06-19T12:38:39.712Z,1.15
2018-06-19T12:40:15.350Z,1.90
2018-06-19T12:41:50.911Z,1.60
2018-06-19T12:43:26.670Z,1.70
2018-06-19T12:45:04.456Z,1.50
2018-06-19T12:46:44.887Z,1.77
2018-06-19T12:48:21.777Z,1.40
2018-06-19T12:50:39.036Z,1.30
2018-06-19T12:54:29.878Z,1.35
2018-06-19T12:56:25.507Z,1.40
2018-06-19T12:58:01.863Z,1.32
2018-06-19T12:59:37.892Z,1.62
2018-06-19T13:01:14.291Z,1.50
2018-06-19T13:03:01.740Z,1.15
2018-06-19T13:04:50.371Z,1.30
2018-06-19T13:06:33.838Z,1.50
2018-06-19T13:08:10.068Z,1.77
2018-06-19T13:09:48.198Z,1.55
2018-06-19T13:11:25.963Z,1.70
2018-06-19T13:13:24.784Z,1.70
2018-06-19T13:15:03.084Z,1.80
2018-06-19T13:16:49.851Z,1.70
2018-06-19T13:18:41.746Z,1.57
2018-06-19T13:20:30.471Z,1.77
2018-06-19T13:22:12.559Z,1.40
2018-06-19T13:23:53.544Z,1.80
2018-06-19T13:25:34.432Z,1.60
2018-06-19T13:27:14.709Z,1.65
2018-06-19T13:30:05.884Z,1.72
2018-06-19T13:31:49.247Z,1.55
2018-06-19T13:33:26.986Z,1.70
2018-06-19T13:35:07.657Z,1.40
2018-06-19T13:36:46.427Z,1.80
2018-06-19T13:38:23.229Z,1.70
2018-06-19T13:41:26.155Z,1.50
2018-06-19T13:45:12.984Z,1.62
2018-06-19T13:46:56.739Z,1.57
2018-06-19T13:48:37.648Z,1.32
2018-06-19T13:50:16.730Z,1.65
2018-06-19T13:51:57.522Z,1.35
2018-06-19T13:53:35.800Z,1.30
2018-06-19T13:57:29.559Z,1.40
2018-06-19T13:59:09.184Z,1.50
2018-06-19T14:00:47.540Z,1.70
2018-06-19T14:02:25.674Z,1.50
2018-06-19T14:04:07.164Z,1.55
2018-06-19T14:05:45.042Z,1.60
2018-06-19T14:07:21.593Z,1.65
2018-06-19T14:09:17.554Z,1.72
2018-06-19T14:11:09.175Z,1.40
2018-06-19T14:12:59.360Z,1.50
2018-06-19T14:14:36.658Z,1.85
2018-06-19T14:16:14.264Z,1.60
2018-06-19T14:17:51.063Z,1.67
2018-06-19T14:19:26.831Z,1.80
2018-06-19T14:21:02.432Z,1.60
2018-06-19T14:22:42.223Z,1.52
2018-06-19T14:24:19.316Z,1.90
2018-06-19T14:25:58.885Z,1.50
2018-06-19T14:27:36.876Z,1.50
2018-06-19T14:29:13.112Z,1.92
2018-06-19T14:30:49.528Z,1.60
2018-06-19T14:32:26.777Z,1.52
2018-06-19T14:34:03.141Z,1.65
2018-06-19T14:35:39.138Z,1.60
2018-06-19T14:37:24.000Z,1.57
2018-06-19T14:39:00.128Z,1.70
2018-06-19T14:40:35.796Z,1.72
2018-06-19T14:42:11.679Z,1.77
2018-06-19T14:43:50.003Z,1.60
2018-06-19T14:45:27.400Z,1.80
2018-06-19T14:47:03.819Z,1.50
2018-06-19T14:48:41.179Z,1.40
2018-06-19T14:50:16.943Z,1.67
2018-06-19T14:51:54.796Z,1.72
2018-06-19T14:53:30.414Z,1.90
2018-06-19T14:55:06.709Z,1.90
2018-06-19T14:56:42.342Z,1.50
2018-06-19T14:58:18.824Z,1.40
2018-06-19T14:59:54.445Z,1.70
2018-06-19T15:01:30.842Z,1.80
2018-06-19T15:03:07.696Z,1.82
2018-06-19T15:04:43.442Z,1.50
2018-06-19T15:06:19.816Z,1.62
2018-06-19T15:07:56.264Z,1.90
2018-06-19T15:09:33.702Z,1.72
2018-06-19T15:11:09.299Z,1.80
2018-06-19T15:12:44.903Z,1.50
2018-06-19T15:14:25.852Z,2.00
2018-06-19T15:16:02.743Z,1.62
2018-06-19T15:17:38.504Z,1.65
2018-06-19T15:19:14.548Z,1.55
2018-06-19T15:20:52.834Z,1.75
2018-06-19T15:22:28.580Z,2.05
2018-06-19T15:24:11.681Z,1.75
2018-06-19T15:25:47.987Z,1.70
2018-06-19T15:27:23.990Z,1.30
2018-06-19T15:28:59.922Z,1.70
2018-06-19T15:30:35.965Z,1.82
2018-06-19T15:32:11.527Z,1.67
2018-06-19T15:33:47.132Z,1.80
2018-06-19T15:35:23.208Z,1.80
2018-06-19T15:36:58.808Z,2.00
2018-06-19T15:38:34.378Z,2.10
2018-06-19T15:40:09.984Z,2.02
2018-06-19T15:41:45.543Z,2.00
2018-06-19T15:43:21.130Z,2.20
2018-06-19T15:44:57.602Z,2.12
2018-06-19T15:46:33.165Z,2.10
2018-06-19T15:48:08.789Z,2.10
2018-06-19T15:49:45.488Z,2.27
2018-06-19T15:51:21.536Z,1.77
2018-06-19T15:52:57.119Z,2.27
2018-06-19T15:54:32.723Z,2.30
2018-06-19T15:56:08.291Z,2.25
2018-06-19T15:57:43.991Z,2.10
2018-06-19T15:59:19.917Z,2.25
2018-06-19T16:00:56.591Z,2.62
2018-06-19T16:02:32.645Z,2.50
2018-06-19T16:04:08.234Z,2.20
2018-06-19T16:05:43.851Z,2.20
2018-06-19T16:07:19.447Z,2.20
2018-06-19T16:08:55.012Z,2.02
2018-06-19T16:10:30.667Z,2.00
2018-06-19T16:12:06.460Z,2.00
2018-06-19T16:13:42.028Z,2.12
2018-06-19T16:15:17.831Z,1.98
2018-06-19T16:16:53.766Z,1.98
2018-06-19T16:18:29.380Z,1.87
2018-06-19T16:20:05.878Z,2.20
2018-06-19T16:21:42.011Z,2.00
2018-06-19T16:23:17.693Z,4.28
2018-06-19T16:24:53.974Z,3.10
2018-06-19T16:26:31.328Z,2.30
2018-06-19T16:28:14.970Z,2.35
2018-06-19T16:29:53.036Z,2.33
2018-06-19T16:31:30.764Z,2.12
2018-06-19T16:33:06.498Z,2.10
2018-06-19T16:34:43.521Z,2.20
2018-06-19T16:36:19.918Z,1.95
2018-06-19T16:37:56.323Z,2.00
2018-06-19T16:39:36.321Z,2.20
2018-06-19T16:41:12.363Z,1.80
2018-06-19T16:42:58.739Z,2.45
2018-06-19T16:44:35.228Z,2.40
2018-06-19T16:46:10.859Z,2.10
2018-06-19T16:47:46.527Z,2.25
2018-06-19T16:49:22.165Z,2.05
2018-06-19T16:50:57.777Z,2.30
2018-06-19T16:52:33.413Z,2.30
2018-06-19T16:54:09.757Z,2.62
2018-06-19T16:55:45.416Z,2.58
2018-06-19T16:57:21.012Z,2.08
2018-06-19T16:58:56.611Z,2.20
2018-06-19T17:00:32.603Z,2.20
2018-06-19T17:02:08.353Z,2.10
2018-06-19T17:03:48.665Z,2.00
2018-06-19T17:05:28.030Z,1.87
2018-06-19T17:07:03.704Z,1.92
2018-06-19T17:08:39.413Z,2.00
2018-06-19T17:10:16.995Z,2.00
2018-06-19T17:11:54.555Z,2.17
2018-06-19T17:13:30.384Z,2.00
2018-06-19T17:15:06.799Z,1.75
2018-06-19T17:16:45.197Z,1.80
2018-06-19T17:18:26.237Z,2.10
2018-06-19T17:20:14.337Z,1.90
2018-06-19T17:21:50.539Z,1.80
2018-06-19T17:23:27.006Z,1.80
2018-06-19T17:25:02.988Z,2.00
2018-06-19T17:26:41.523Z,1.92
2018-06-19T17:28:28.141Z,1.82
2018-06-19T17:30:05.560Z,1.65
2018-06-19T17:31:41.987Z,1.55
2018-06-19T17:33:19.256Z,1.80
2018-06-19T17:34:56.333Z,1.60
2018-06-19T17:36:44.444Z,1.80
2018-06-19T17:38:23.211Z,1.40
2018-06-19T17:40:01.359Z,1.45
2018-06-19T17:41:48.177Z,1.70
2018-06-19T17:43:31.410Z,1.42
2018-06-19T17:45:15.557Z,1.50
2018-06-19T17:47:00.875Z,1.70
2018-06-19T17:48:43.882Z,1.53
2018-06-19T17:50:21.461Z,1.73
2018-06-19T17:52:01.909Z,1.50
2018-06-19T17:53:41.084Z,1.50
2018-06-19T17:55:24.585Z,1.60
2018-06-19T17:57:05.396Z,1.60
2018-06-19T18:00:29.051Z,1.60
2018-06-19T18:02:12.477Z,1.47
2018-06-19T18:03:53.907Z,1.37
2018-06-19T18:05:39.351Z,1.40
2018-06-19T18:07:19.497Z,1.60
2018-06-19T18:09:02.223Z,1.53
2018-06-19T18:10:37.887Z,1.30
2018-06-19T18:12:14.918Z,1.30
2018-06-19T18:13:56.544Z,1.37
2018-06-19T18:15:55.011Z,1.30
2018-06-19T18:17:37.191Z,1.57
2018-06-19T18:19:20.553Z,1.40
2018-06-19T18:21:00.260Z,1.40
2018-06-19T18:22:45.149Z,1.30
2018-06-19T18:24:28.098Z,1.50
2018-06-19T18:26:09.079Z,1.30
2018-06-19T18:27:49.097Z,1.40
2018-06-19T18:29:28.950Z,1.40
2018-06-19T18:31:09.551Z,1.50
2018-06-19T18:32:49.589Z,1.63
2018-06-19T18:34:30.508Z,1.60
2018-06-19T18:36:11.566Z,1.70
2018-06-19T18:37:53.064Z,1.40
2018-06-19T18:39:36.469Z,1.37
2018-06-19T18:41:15.579Z,1.40
2018-06-19T18:42:53.166Z,1.50
2018-06-19T18:44:30.256Z,1.50
2018-06-19T18:46:10.619Z,1.60
2018-06-19T18:47:47.937Z,1.50
2018-06-19T18:49:29.658Z,1.50
2018-06-19T18:51:09.347Z,1.40
2018-06-19T18:52:50.029Z,1.53
2018-06-19T18:54:26.187Z,1.40
2018-06-19T18:56:06.019Z,1.50
2018-06-19T18:57:42.791Z,1.60
2018-06-19T18:59:18.367Z,1.50
2018-06-19T19:00:55.657Z,1.97
2018-06-19T19:02:33.550Z,1.90
2018-06-19T19:04:10.995Z,1.67
2018-06-19T19:05:57.700Z,1.57
2018-06-19T19:07:43.849Z,1.80
2018-06-19T19:09:27.563Z,1.70
2018-06-19T19:11:13.507Z,1.50
2018-06-19T19:13:09.299Z,1.70
2018-06-19T19:14:59.621Z,1.40
2018-06-19T19:18:31.711Z,1.37
2018-06-19T19:20:10.664Z,1.40
2018-06-19T19:21:52.140Z,1.40
2018-06-19T19:27:32.039Z,1.50
2018-06-19T19:29:15.776Z,1.63
2018-06-19T19:32:35.981Z,1.47
2018-06-19T19:34:12.775Z,1.50
2018-06-19T19:36:10.750Z,1.40
2018-06-19T19:38:06.660Z,1.40
2018-06-19T19:39:46.214Z,1.60
2018-06-19T19:41:25.575Z,1.63
2018-06-19T19:44:50.254Z,1.60
2018-06-19T19:46:34.961Z,1.47
2018-06-19T19:48:22.859Z,1.53
2018-06-19T19:49:58.532Z,1.50
2018-06-19T19:51:34.111Z,1.60
2018-06-19T19:53:10.387Z,1.57
2018-06-19T19:54:47.423Z,1.50
2018-06-19T19:56:29.297Z,1.83
2018-06-19T19:58:16.442Z,1.60
2018-06-19T19:59:56.883Z,1.73
2018-06-19T20:01:32.906Z,1.70
2018-06-19T20:03:11.173Z,1.73
2018-06-19T20:04:49.158Z,1.67
2018-06-19T20:06:27.338Z,1.50
2018-06-19T20:08:02.914Z,1.70
2018-06-19T20:09:42.582Z,1.80
2018-06-19T20:11:22.288Z,1.70
2018-06-19T20:13:06.353Z,1.77
2018-06-19T20:14:41.904Z,1.70
2018-06-19T20:16:17.519Z,1.70
2018-06-19T20:17:53.110Z,1.60
2018-06-19T20:19:28.683Z,1.50
2018-06-19T20:21:05.077Z,1.80
2018-06-19T20:22:41.339Z,1.63
2018-06-19T20:24:16.858Z,1.60
2018-06-19T20:25:52.397Z,1.70
2018-06-19T20:27:29.231Z,1.80
2018-06-19T20:29:19.668Z,1.70
2018-06-19T20:31:09.127Z,1.60
2018-06-19T20:32:45.047Z,1.60
2018-06-19T20:34:20.562Z,1.70
2018-06-19T20:35:56.087Z,1.67
2018-06-19T20:37:31.965Z,1.60
2018-06-19T20:39:09.285Z,1.50
2018-06-19T20:40:44.863Z,1.27
2018-06-19T20:42:20.464Z,1.70
2018-06-19T20:43:56.089Z,1.60
2018-06-19T20:45:31.660Z,1.60
2018-06-19T20:47:07.226Z,1.50
2018-06-19T20:48:42.835Z,1.60
2018-06-19T20:50:18.403Z,1.60
2018-06-19T20:51:53.959Z,1.57
2018-06-19T20:53:29.519Z,1.40
2018-06-19T20:55:05.150Z,1.50
2018-06-19T20:56:40.756Z,1.57
2018-06-19T20:58:16.740Z,1.70
2018-06-19T20:59:52.363Z,1.40
2018-06-19T21:01:28.023Z,1.50
2018-06-19T21:03:03.644Z,1.97
2018-06-19T21:04:39.219Z,1.80
2018-06-19T21:06:14.855Z,1.90
2018-06-19T21:07:50.414Z,1.90
2018-06-19T21:09:25.979Z,2.50
2018-06-19T21:11:01.574Z,2.40
2018-06-19T21:12:37.569Z,2.20
2018-06-19T21:14:13.162Z,1.90
2018-06-19T21:15:48.788Z,1.80
2018-06-19T21:17:24.384Z,1.90
2018-06-19T21:19:00.035Z,1.47
2018-06-19T21:20:35.652Z,1.87
2018-06-19T21:22:11.283Z,1.70
2018-06-19T21:23:46.864Z,1.60
2018-06-19T21:25:22.543Z,1.60
2018-06-19T21:26:58.114Z,1.60
2018-06-19T21:28:34.707Z,1.70
2018-06-19T21:30:10.268Z,1.90
2018-06-19T21:31:45.923Z,1.73
2018-06-19T21:33:21.509Z,1.77
2018-06-19T21:34:57.799Z,1.70
2018-06-19T21:36:33.359Z,1.70
2018-06-19T21:38:08.976Z,1.63
2018-06-19T21:39:44.603Z,1.70
2018-06-19T21:41:20.205Z,1.83
2018-06-19T21:42:55.941Z,1.50
2018-06-19T21:44:31.526Z,1.80
2018-06-19T21:46:07.121Z,1.77
2018-06-19T21:47:42.768Z,1.60
2018-06-19T21:49:18.427Z,1.83
2018-06-19T21:50:54.006Z,1.53
2018-06-19T21:52:29.599Z,1.80